Sao Jose das Laranjeiras, Brazil
Current Conditions -  °F | °C
As of 2:00 AM on Saturday 20 Dec 2014 (Local Time) from SBLO Reporting Station
Scattered Clouds Scattered Clouds  
Wind Chill: 73°   Ceiling: Unl
Heat Index: 73°   Visibility: 6mi
Dew Point: 70°   Wind: 6mph
Humidity: 88%   Direction: 160°SSE
Pressure: 29.83"   Gusts: NA
Location:  22.67°S, 50.86°W
Report Text: SBLO 200400Z 16005KT 9999 SCT030 23/21 Q1010
Loading
Personal Weather Stations






























Interactive Weather Map New forecast layout! Learn more

10-Day Weather Forecast

Advertisements
Track Severe Weather on mobile